KSIK/SIK METAR and TAF weather

Enter ICAO airport designator
Station Type Date Time Source
KSIK METAR 2019/08/22 20:55 UTC NOAA

KSIK 222055Z AUTO 12003KT 10SM OVC007 23/22 A2999 RMK AO2 LTG DSNT S


Station Type Date Time Source
KSIK Decoded METAR 2019/08/22 20:55 UTC NOAA

Station name not available
Aug 22, 2019 - 04:55 PM EDT / 2019.08.22 2055 UTC
Wind: from the ESE (120 degrees) at 3 MPH (3 KT):0
Visibility: 10 mile(s):0
Sky conditions: overcast
Weather: Lightning observed
Temperature: 73 F (23 C)
Dew Point: 71 F (22 C)
Relative Humidity: 94%
Pressure (altimeter): 29.99 in. Hg (1015 hPa)
ob: KSIK 222055Z AUTO 12003KT 10SM OVC007 23/22 A2999 RMK AO2 LTG DSNT S
cycle: 21

Station Type Date Time Source
KSIK TAF UTC NOAA

Error!

Example: see airport list